sensor_id;sensor_type;location;lat;lon;timestamp;P1;durP1;ratioP1;P2;durP2;ratioP2
59516;SDS011;45342;42.662;27.718;2024-01-16T00:01:16;14.27;;;8.40;;
59516;SDS011;45342;42.662;27.718;2024-01-16T00:03:43;12.63;;;8.02;;
59516;SDS011;45342;42.662;27.718;2024-01-16T00:06:09;12.57;;;7.95;;
59516;SDS011;45342;42.662;27.718;2024-01-16T00:08:35;12.45;;;7.72;;
59516;SDS011;45342;42.662;27.718;2024-01-16T00:11:01;13.32;;;8.10;;
59516;SDS011;45342;42.662;27.718;2024-01-16T00:13:28;14.10;;;7.93;;
59516;SDS011;45342;42.662;27.718;2024-01-16T00:15:53;11.75;;;7.63;;
59516;SDS011;45342;42.662;27.718;2024-01-16T00:18:21;13.73;;;7.93;;
59516;SDS011;45342;42.662;27.718;2024-01-16T00:20:47;11.80;;;8.32;;
59516;SDS011;45342;42.662;27.718;2024-01-16T00:23:13;11.98;;;7.70;;
59516;SDS011;45342;42.662;27.718;2024-01-16T00:25:39;12.27;;;7.82;;
59516;SDS011;45342;42.662;27.718;2024-01-16T00:28:05;11.27;;;7.35;;
59516;SDS011;45342;42.662;27.718;2024-01-16T00:30:32;12.88;;;7.50;;
59516;SDS011;45342;42.662;27.718;2024-01-16T00:32:58;14.02;;;8.40;;
59516;SDS011;45342;42.662;27.718;2024-01-16T00:35:24;12.10;;;7.53;;
59516;SDS011;45342;42.662;27.718;2024-01-16T00:37:50;12.68;;;7.90;;
59516;SDS011;45342;42.662;27.718;2024-01-16T00:40:17;14.07;;;8.27;;
59516;SDS011;45342;42.662;27.718;2024-01-16T00:42:43;13.05;;;8.20;;
59516;SDS011;45342;42.662;27.718;2024-01-16T00:45:08;12.68;;;8.07;;
59516;SDS011;45342;42.662;27.718;2024-01-16T00:47:34;13.43;;;7.72;;
59516;SDS011;45342;42.662;27.718;2024-01-16T00:50:00;13.15;;;7.97;;
59516;SDS011;45342;42.662;27.718;2024-01-16T00:52:27;13.15;;;7.53;;
59516;SDS011;45342;42.662;27.718;2024-01-16T00:54:53;12.23;;;7.85;;
59516;SDS011;45342;42.662;27.718;2024-01-16T00:57:18;12.82;;;7.75;;
59516;SDS011;45342;42.662;27.718;2024-01-16T00:59:47;12.75;;;7.75;;
59516;SDS011;45342;42.662;27.718;2024-01-16T01:02:13;11.90;;;7.88;;
59516;SDS011;45342;42.662;27.718;2024-01-16T01:04:39;12.57;;;7.50;;
59516;SDS011;45342;42.662;27.718;2024-01-16T01:07:07;12.10;;;7.38;;
59516;SDS011;45342;42.662;27.718;2024-01-16T01:09:33;12.30;;;8.00;;
59516;SDS011;45342;42.662;27.718;2024-01-16T01:11:59;11.13;;;7.47;;
59516;SDS011;45342;42.662;27.718;2024-01-16T01:14:25;12.98;;;7.97;;
59516;SDS011;45342;42.662;27.718;2024-01-16T01:16:55;13.20;;;7.93;;
59516;SDS011;45342;42.662;27.718;2024-01-16T01:19:20;10.00;;;6.93;;
59516;SDS011;45342;42.662;27.718;2024-01-16T01:21:46;11.25;;;7.43;;
59516;SDS011;45342;42.662;27.718;2024-01-16T01:24:12;11.48;;;7.75;;
59516;SDS011;45342;42.662;27.718;2024-01-16T01:26:38;10.73;;;7.20;;
59516;SDS011;45342;42.662;27.718;2024-01-16T01:29:03;11.18;;;7.43;;
59516;SDS011;45342;42.662;27.718;2024-01-16T01:31:29;10.77;;;7.07;;
59516;SDS011;45342;42.662;27.718;2024-01-16T01:33:55;12.32;;;7.22;;
59516;SDS011;45342;42.662;27.718;2024-01-16T01:36:20;11.60;;;7.47;;
59516;SDS011;45342;42.662;27.718;2024-01-16T01:38:46;11.32;;;7.55;;
59516;SDS011;45342;42.662;27.718;2024-01-16T01:41:12;10.55;;;7.07;;
59516;SDS011;45342;42.662;27.718;2024-01-16T01:43:38;11.32;;;7.18;;
59516;SDS011;45342;42.662;27.718;2024-01-16T01:46:08;11.55;;;7.28;;
59516;SDS011;45342;42.662;27.718;2024-01-16T01:48:37;10.23;;;6.68;;
59516;SDS011;45342;42.662;27.718;2024-01-16T01:51:03;11.00;;;7.50;;
59516;SDS011;45342;42.662;27.718;2024-01-16T01:53:30;11.35;;;7.03;;
59516;SDS011;45342;42.662;27.718;2024-01-16T01:55:56;10.95;;;7.15;;
59516;SDS011;45342;42.662;27.718;2024-01-16T01:58:22;10.40;;;7.18;;
59516;SDS011;45342;42.662;27.718;2024-01-16T02:00:48;10.40;;;6.80;;
59516;SDS011;45342;42.662;27.718;2024-01-16T02:03:14;10.73;;;6.88;;
59516;SDS011;45342;42.662;27.718;2024-01-16T02:05:39;10.90;;;7.25;;
59516;SDS011;45342;42.662;27.718;2024-01-16T02:08:05;10.25;;;6.82;;
59516;SDS011;45342;42.662;27.718;2024-01-16T02:10:31;9.73;;;6.80;;
59516;SDS011;45342;42.662;27.718;2024-01-16T02:12:57;11.50;;;6.95;;
59516;SDS011;45342;42.662;27.718;2024-01-16T02:15:24;10.88;;;6.78;;
59516;SDS011;45342;42.662;27.718;2024-01-16T02:17:49;10.85;;;6.90;;
59516;SDS011;45342;42.662;27.718;2024-01-16T02:20:15;13.77;;;7.28;;
59516;SDS011;45342;42.662;27.718;2024-01-16T02:22:42;10.50;;;7.10;;
59516;SDS011;45342;42.662;27.718;2024-01-16T02:25:11;10.15;;;6.60;;
59516;SDS011;45342;42.662;27.718;2024-01-16T02:27:37;10.77;;;6.72;;
59516;SDS011;45342;42.662;27.718;2024-01-16T02:30:02;10.48;;;6.75;;
59516;SDS011;45342;42.662;27.718;2024-01-16T02:32:28;11.07;;;7.05;;
59516;SDS011;45342;42.662;27.718;2024-01-16T02:34:54;10.07;;;6.60;;
59516;SDS011;45342;42.662;27.718;2024-01-16T02:37:20;11.27;;;7.00;;
59516;SDS011;45342;42.662;27.718;2024-01-16T02:39:46;11.55;;;7.28;;
59516;SDS011;45342;42.662;27.718;2024-01-16T02:42:11;11.27;;;7.25;;
59516;SDS011;45342;42.662;27.718;2024-01-16T02:44:37;10.60;;;6.97;;
59516;SDS011;45342;42.662;27.718;2024-01-16T02:47:03;10.43;;;6.28;;
59516;SDS011;45342;42.662;27.718;2024-01-16T02:49:28;11.52;;;6.70;;
59516;SDS011;45342;42.662;27.718;2024-01-16T02:51:57;10.13;;;6.57;;
59516;SDS011;45342;42.662;27.718;2024-01-16T02:56:49;11.50;;;6.63;;
59516;SDS011;45342;42.662;27.718;2024-01-16T02:59:15;10.43;;;6.90;;
59516;SDS011;45342;42.662;27.718;2024-01-16T03:01:40;9.10;;;6.30;;
59516;SDS011;45342;42.662;27.718;2024-01-16T03:04:07;9.45;;;6.32;;
59516;SDS011;45342;42.662;27.718;2024-01-16T03:06:32;9.45;;;6.30;;
59516;SDS011;45342;42.662;27.718;2024-01-16T03:08:59;10.82;;;6.80;;
59516;SDS011;45342;42.662;27.718;2024-01-16T03:11:25;10.45;;;6.82;;
59516;SDS011;45342;42.662;27.718;2024-01-16T03:13:50;11.07;;;6.90;;
59516;SDS011;45342;42.662;27.718;2024-01-16T03:16:18;11.38;;;6.80;;
59516;SDS011;45342;42.662;27.718;2024-01-16T03:18:44;10.90;;;6.55;;
59516;SDS011;45342;42.662;27.718;2024-01-16T03:21:10;11.63;;;6.72;;
59516;SDS011;45342;42.662;27.718;2024-01-16T03:23:41;10.38;;;6.75;;
59516;SDS011;45342;42.662;27.718;2024-01-16T03:26:11;10.27;;;6.80;;
59516;SDS011;45342;42.662;27.718;2024-01-16T03:28:37;10.63;;;6.72;;
59516;SDS011;45342;42.662;27.718;2024-01-16T03:31:03;8.80;;;6.10;;
59516;SDS011;45342;42.662;27.718;2024-01-16T03:33:29;9.77;;;6.30;;
59516;SDS011;45342;42.662;27.718;2024-01-16T03:35:54;10.45;;;6.63;;
59516;SDS011;45342;42.662;27.718;2024-01-16T03:38:20;10.45;;;6.25;;
59516;SDS011;45342;42.662;27.718;2024-01-16T03:40:46;10.13;;;6.25;;
59516;SDS011;45342;42.662;27.718;2024-01-16T03:43:11;10.70;;;6.22;;
59516;SDS011;45342;42.662;27.718;2024-01-16T03:45:37;9.13;;;5.90;;
59516;SDS011;45342;42.662;27.718;2024-01-16T03:50:30;10.20;;;6.30;;
59516;SDS011;45342;42.662;27.718;2024-01-16T03:52:55;11.05;;;6.28;;
59516;SDS011;45342;42.662;27.718;2024-01-16T03:55:23;10.48;;;6.43;;
59516;SDS011;45342;42.662;27.718;2024-01-16T03:57:49;9.85;;;6.55;;
59516;SDS011;45342;42.662;27.718;2024-01-16T04:00:16;9.43;;;6.13;;
59516;SDS011;45342;42.662;27.718;2024-01-16T04:02:42;9.27;;;6.97;;
59516;SDS011;45342;42.662;27.718;2024-01-16T04:05:07;9.98;;;6.45;;
59516;SDS011;45342;42.662;27.718;2024-01-16T04:07:33;9.90;;;6.00;;
59516;SDS011;45342;42.662;27.718;2024-01-16T04:09:59;10.70;;;6.20;;
59516;SDS011;45342;42.662;27.718;2024-01-16T04:12:30;10.38;;;6.60;;
59516;SDS011;45342;42.662;27.718;2024-01-16T04:14:56;9.32;;;6.15;;
59516;SDS011;45342;42.662;27.718;2024-01-16T04:17:22;9.25;;;6.20;;
59516;SDS011;45342;42.662;27.718;2024-01-16T04:19:48;9.45;;;6.03;;
59516;SDS011;45342;42.662;27.718;2024-01-16T04:22:14;9.30;;;6.30;;
59516;SDS011;45342;42.662;27.718;2024-01-16T04:24:40;9.07;;;5.72;;
59516;SDS011;45342;42.662;27.718;2024-01-16T04:27:06;9.40;;;6.68;;
59516;SDS011;45342;42.662;27.718;2024-01-16T04:29:32;9.30;;;6.03;;
59516;SDS011;45342;42.662;27.718;2024-01-16T04:31:59;10.30;;;6.35;;
59516;SDS011;45342;42.662;27.718;2024-01-16T04:34:25;9.18;;;6.18;;
59516;SDS011;45342;42.662;27.718;2024-01-16T04:36:50;8.95;;;5.90;;
59516;SDS011;45342;42.662;27.718;2024-01-16T04:39:16;8.68;;;5.95;;
59516;SDS011;45342;42.662;27.718;2024-01-16T04:41:42;10.55;;;6.00;;
59516;SDS011;45342;42.662;27.718;2024-01-16T04:44:08;11.18;;;6.85;;
59516;SDS011;45342;42.662;27.718;2024-01-16T04:46:34;9.07;;;5.78;;
59516;SDS011;45342;42.662;27.718;2024-01-16T04:49:00;8.90;;;5.88;;
59516;SDS011;45342;42.662;27.718;2024-01-16T04:51:25;9.93;;;6.55;;
59516;SDS011;45342;42.662;27.718;2024-01-16T04:53:51;10.05;;;6.38;;
59516;SDS011;45342;42.662;27.718;2024-01-16T04:56:17;9.52;;;5.90;;
59516;SDS011;45342;42.662;27.718;2024-01-16T04:58:44;9.15;;;5.82;;
59516;SDS011;45342;42.662;27.718;2024-01-16T05:01:11;9.90;;;6.43;;
59516;SDS011;45342;42.662;27.718;2024-01-16T05:03:38;10.13;;;6.65;;
59516;SDS011;45342;42.662;27.718;2024-01-16T05:06:04;9.85;;;6.40;;
59516;SDS011;45342;42.662;27.718;2024-01-16T05:08:29;8.73;;;5.63;;
59516;SDS011;45342;42.662;27.718;2024-01-16T05:10:56;9.32;;;6.13;;
59516;SDS011;45342;42.662;27.718;2024-01-16T05:15:47;10.23;;;6.22;;
59516;SDS011;45342;42.662;27.718;2024-01-16T05:20:39;7.97;;;5.70;;
59516;SDS011;45342;42.662;27.718;2024-01-16T05:23:05;9.77;;;6.15;;
59516;SDS011;45342;42.662;27.718;2024-01-16T05:25:32;9.77;;;6.20;;
59516;SDS011;45342;42.662;27.718;2024-01-16T05:27:57;8.90;;;6.05;;
59516;SDS011;45342;42.662;27.718;2024-01-16T05:30:23;9.57;;;6.45;;
59516;SDS011;45342;42.662;27.718;2024-01-16T05:32:49;8.40;;;5.75;;
59516;SDS011;45342;42.662;27.718;2024-01-16T05:35:15;9.57;;;6.15;;
59516;SDS011;45342;42.662;27.718;2024-01-16T05:37:40;9.43;;;6.28;;
59516;SDS011;45342;42.662;27.718;2024-01-16T05:40:06;9.80;;;6.38;;
59516;SDS011;45342;42.662;27.718;2024-01-16T05:42:34;10.85;;;6.93;;
59516;SDS011;45342;42.662;27.718;2024-01-16T05:44:59;8.68;;;5.97;;
59516;SDS011;45342;42.662;27.718;2024-01-16T05:47:25;9.20;;;6.32;;
59516;SDS011;45342;42.662;27.718;2024-01-16T05:49:53;10.20;;;6.47;;
59516;SDS011;45342;42.662;27.718;2024-01-16T05:52:20;9.93;;;6.15;;
59516;SDS011;45342;42.662;27.718;2024-01-16T05:54:45;9.95;;;6.85;;
59516;SDS011;45342;42.662;27.718;2024-01-16T05:57:11;9.77;;;6.22;;
59516;SDS011;45342;42.662;27.718;2024-01-16T05:59:38;8.65;;;5.93;;
59516;SDS011;45342;42.662;27.718;2024-01-16T06:02:03;9.45;;;6.18;;
59516;SDS011;45342;42.662;27.718;2024-01-16T06:04:29;9.77;;;6.15;;
59516;SDS011;45342;42.662;27.718;2024-01-16T06:06:55;10.13;;;6.53;;
59516;SDS011;45342;42.662;27.718;2024-01-16T06:09:20;10.52;;;5.93;;
59516;SDS011;45342;42.662;27.718;2024-01-16T06:11:46;10.07;;;6.25;;
59516;SDS011;45342;42.662;27.718;2024-01-16T06:14:13;8.63;;;5.70;;
59516;SDS011;45342;42.662;27.718;2024-01-16T06:16:39;9.80;;;5.90;;
59516;SDS011;45342;42.662;27.718;2024-01-16T06:19:05;8.98;;;5.65;;
59516;SDS011;45342;42.662;27.718;2024-01-16T06:21:33;9.07;;;6.22;;
59516;SDS011;45342;42.662;27.718;2024-01-16T06:23:58;10.60;;;6.40;;
59516;SDS011;45342;42.662;27.718;2024-01-16T06:26:24;8.95;;;6.20;;
59516;SDS011;45342;42.662;27.718;2024-01-16T06:28:50;9.88;;;6.10;;
59516;SDS011;45342;42.662;27.718;2024-01-16T06:31:16;10.02;;;6.70;;
59516;SDS011;45342;42.662;27.718;2024-01-16T06:33:44;8.68;;;5.95;;
59516;SDS011;45342;42.662;27.718;2024-01-16T06:36:09;9.55;;;5.93;;
59516;SDS011;45342;42.662;27.718;2024-01-16T06:38:37;9.10;;;6.15;;
59516;SDS011;45342;42.662;27.718;2024-01-16T06:41:04;10.20;;;6.47;;
59516;SDS011;45342;42.662;27.718;2024-01-16T06:43:31;9.45;;;6.03;;
59516;SDS011;45342;42.662;27.718;2024-01-16T06:45:57;9.98;;;6.32;;
59516;SDS011;45342;42.662;27.718;2024-01-16T06:48:23;10.75;;;6.80;;
59516;SDS011;45342;42.662;27.718;2024-01-16T06:50:49;9.15;;;5.75;;
59516;SDS011;45342;42.662;27.718;2024-01-16T06:53:14;9.07;;;5.85;;
59516;SDS011;45342;42.662;27.718;2024-01-16T06:55:40;9.45;;;6.30;;
59516;SDS011;45342;42.662;27.718;2024-01-16T06:58:06;10.10;;;6.30;;
59516;SDS011;45342;42.662;27.718;2024-01-16T07:00:32;9.10;;;6.22;;
59516;SDS011;45342;42.662;27.718;2024-01-16T07:02:58;8.80;;;5.95;;
59516;SDS011;45342;42.662;27.718;2024-01-16T07:05:27;9.25;;;6.13;;
59516;SDS011;45342;42.662;27.718;2024-01-16T07:07:54;8.93;;;6.15;;
59516;SDS011;45342;42.662;27.718;2024-01-16T07:10:20;8.40;;;5.60;;
59516;SDS011;45342;42.662;27.718;2024-01-16T07:12:47;10.05;;;6.10;;
59516;SDS011;45342;42.662;27.718;2024-01-16T07:15:14;8.15;;;5.53;;
59516;SDS011;45342;42.662;27.718;2024-01-16T07:17:40;9.60;;;6.38;;
59516;SDS011;45342;42.662;27.718;2024-01-16T07:20:06;10.77;;;6.47;;
59516;SDS011;45342;42.662;27.718;2024-01-16T07:22:32;10.25;;;6.25;;
59516;SDS011;45342;42.662;27.718;2024-01-16T07:24:59;10.30;;;6.05;;
59516;SDS011;45342;42.662;27.718;2024-01-16T07:27:25;9.73;;;6.55;;
59516;SDS011;45342;42.662;27.718;2024-01-16T07:29:51;9.32;;;6.50;;
59516;SDS011;45342;42.662;27.718;2024-01-16T07:32:17;9.30;;;6.25;;
59516;SDS011;45342;42.662;27.718;2024-01-16T07:34:42;12.60;;;6.30;;
59516;SDS011;45342;42.662;27.718;2024-01-16T07:37:09;8.68;;;5.53;;
59516;SDS011;45342;42.662;27.718;2024-01-16T07:39:35;10.60;;;6.60;;
59516;SDS011;45342;42.662;27.718;2024-01-16T07:42:00;10.02;;;6.07;;
59516;SDS011;45342;42.662;27.718;2024-01-16T07:44:27;10.40;;;6.28;;
59516;SDS011;45342;42.662;27.718;2024-01-16T07:46:52;9.52;;;6.18;;
59516;SDS011;45342;42.662;27.718;2024-01-16T07:49:18;9.52;;;6.03;;
59516;SDS011;45342;42.662;27.718;2024-01-16T07:51:43;10.13;;;6.50;;
59516;SDS011;45342;42.662;27.718;2024-01-16T07:54:09;9.48;;;6.15;;
59516;SDS011;45342;42.662;27.718;2024-01-16T07:59:01;8.65;;;5.60;;
59516;SDS011;45342;42.662;27.718;2024-01-16T08:01:28;9.32;;;5.68;;
59516;SDS011;45342;42.662;27.718;2024-01-16T08:06:19;8.77;;;5.93;;
59516;SDS011;45342;42.662;27.718;2024-01-16T08:08:45;10.25;;;6.32;;
59516;SDS011;45342;42.662;27.718;2024-01-16T08:11:11;9.05;;;6.10;;
59516;SDS011;45342;42.662;27.718;2024-01-16T08:13:37;9.38;;;6.57;;
59516;SDS011;45342;42.662;27.718;2024-01-16T08:16:04;8.85;;;6.32;;
59516;SDS011;45342;42.662;27.718;2024-01-16T08:18:30;10.13;;;6.70;;
59516;SDS011;45342;42.662;27.718;2024-01-16T08:20:56;9.95;;;6.60;;
59516;SDS011;45342;42.662;27.718;2024-01-16T08:23:22;9.35;;;6.05;;
59516;SDS011;45342;42.662;27.718;2024-01-16T08:25:48;8.80;;;6.22;;
59516;SDS011;45342;42.662;27.718;2024-01-16T08:28:16;10.10;;;6.40;;
59516;SDS011;45342;42.662;27.718;2024-01-16T08:33:08;8.23;;;5.65;;
59516;SDS011;45342;42.662;27.718;2024-01-16T08:35:34;11.43;;;6.93;;
59516;SDS011;45342;42.662;27.718;2024-01-16T08:38:00;10.57;;;6.60;;
59516;SDS011;45342;42.662;27.718;2024-01-16T08:40:26;10.73;;;6.53;;
59516;SDS011;45342;42.662;27.718;2024-01-16T08:42:51;9.20;;;6.03;;
59516;SDS011;45342;42.662;27.718;2024-01-16T08:45:20;8.60;;;6.15;;
59516;SDS011;45342;42.662;27.718;2024-01-16T08:47:46;10.75;;;6.55;;
59516;SDS011;45342;42.662;27.718;2024-01-16T08:50:12;11.65;;;6.38;;
59516;SDS011;45342;42.662;27.718;2024-01-16T08:52:38;10.15;;;6.57;;
59516;SDS011;45342;42.662;27.718;2024-01-16T08:55:04;9.07;;;6.38;;
59516;SDS011;45342;42.662;27.718;2024-01-16T08:57:30;8.90;;;5.97;;
59516;SDS011;45342;42.662;27.718;2024-01-16T08:59:56;9.65;;;6.57;;
59516;SDS011;45342;42.662;27.718;2024-01-16T09:02:21;8.80;;;6.28;;
59516;SDS011;45342;42.662;27.718;2024-01-16T09:04:47;10.75;;;6.57;;
59516;SDS011;45342;42.662;27.718;2024-01-16T09:07:16;8.35;;;6.00;;
59516;SDS011;45342;42.662;27.718;2024-01-16T09:09:42;10.07;;;6.90;;
59516;SDS011;45342;42.662;27.718;2024-01-16T09:12:11;10.55;;;6.60;;
59516;SDS011;45342;42.662;27.718;2024-01-16T09:14:37;9.35;;;6.15;;
59516;SDS011;45342;42.662;27.718;2024-01-16T09:17:03;10.15;;;6.30;;
59516;SDS011;45342;42.662;27.718;2024-01-16T09:19:29;9.38;;;6.60;;
59516;SDS011;45342;42.662;27.718;2024-01-16T09:21:55;10.07;;;6.22;;
59516;SDS011;45342;42.662;27.718;2024-01-16T09:24:21;10.50;;;6.63;;
59516;SDS011;45342;42.662;27.718;2024-01-16T09:26:47;9.10;;;6.70;;
59516;SDS011;45342;42.662;27.718;2024-01-16T09:29:13;10.30;;;6.80;;
59516;SDS011;45342;42.662;27.718;2024-01-16T09:31:40;10.57;;;7.15;;
59516;SDS011;45342;42.662;27.718;2024-01-16T09:34:06;9.70;;;6.38;;
59516;SDS011;45342;42.662;27.718;2024-01-16T09:36:32;9.55;;;5.95;;
59516;SDS011;45342;42.662;27.718;2024-01-16T09:39:01;8.73;;;6.07;;
59516;SDS011;45342;42.662;27.718;2024-01-16T09:41:28;9.38;;;6.00;;
59516;SDS011;45342;42.662;27.718;2024-01-16T09:43:53;10.82;;;6.63;;
59516;SDS011;45342;42.662;27.718;2024-01-16T09:46:22;10.05;;;6.85;;
59516;SDS011;45342;42.662;27.718;2024-01-16T09:48:49;10.15;;;6.88;;
59516;SDS011;45342;42.662;27.718;2024-01-16T09:51:16;8.43;;;5.95;;
59516;SDS011;45342;42.662;27.718;2024-01-16T09:53:42;9.82;;;6.50;;
59516;SDS011;45342;42.662;27.718;2024-01-16T09:56:09;7.97;;;5.97;;
59516;SDS011;45342;42.662;27.718;2024-01-16T09:58:40;8.27;;;5.55;;
59516;SDS011;45342;42.662;27.718;2024-01-16T10:01:06;9.32;;;6.10;;
59516;SDS011;45342;42.662;27.718;2024-01-16T10:03:32;8.93;;;5.82;;
59516;SDS011;45342;42.662;27.718;2024-01-16T10:06:02;8.35;;;5.90;;
59516;SDS011;45342;42.662;27.718;2024-01-16T10:08:31;8.98;;;6.13;;
59516;SDS011;45342;42.662;27.718;2024-01-16T10:10:58;9.32;;;6.38;;
59516;SDS011;45342;42.662;27.718;2024-01-16T10:13:25;10.95;;;6.38;;
59516;SDS011;45342;42.662;27.718;2024-01-16T10:15:51;8.48;;;6.05;;
59516;SDS011;45342;42.662;27.718;2024-01-16T10:18:26;8.27;;;6.03;;
59516;SDS011;45342;42.662;27.718;2024-01-16T10:20:54;8.75;;;6.05;;
59516;SDS011;45342;42.662;27.718;2024-01-16T10:23:23;9.25;;;5.78;;
59516;SDS011;45342;42.662;27.718;2024-01-16T10:26:05;8.07;;;5.93;;
59516;SDS011;45342;42.662;27.718;2024-01-16T10:28:35;9.07;;;6.30;;
59516;SDS011;45342;42.662;27.718;2024-01-16T10:31:06;8.45;;;5.68;;
59516;SDS011;45342;42.662;27.718;2024-01-16T10:34:29;8.43;;;5.80;;
59516;SDS011;45342;42.662;27.718;2024-01-16T10:43:24;8.38;;;5.55;;
59516;SDS011;45342;42.662;27.718;2024-01-16T10:45:50;8.73;;;5.82;;
59516;SDS011;45342;42.662;27.718;2024-01-16T10:52:27;8.82;;;5.40;;
59516;SDS011;45342;42.662;27.718;2024-01-16T10:54:57;8.18;;;5.25;;
59516;SDS011;45342;42.662;27.718;2024-01-16T11:01:15;7.13;;;4.88;;
59516;SDS011;45342;42.662;27.718;2024-01-16T11:03:48;8.30;;;5.45;;
59516;SDS011;45342;42.662;27.718;2024-01-16T11:06:15;7.80;;;5.07;;
59516;SDS011;45342;42.662;27.718;2024-01-16T11:08:42;7.93;;;4.82;;
59516;SDS011;45342;42.662;27.718;2024-01-16T11:11:11;7.43;;;5.07;;
59516;SDS011;45342;42.662;27.718;2024-01-16T11:13:38;7.18;;;4.93;;
59516;SDS011;45342;42.662;27.718;2024-01-16T11:16:05;8.15;;;5.22;;
59516;SDS011;45342;42.662;27.718;2024-01-16T11:18:37;8.27;;;5.38;;
59516;SDS011;45342;42.662;27.718;2024-01-16T11:21:44;7.55;;;5.07;;
59516;SDS011;45342;42.662;27.718;2024-01-16T11:25:08;8.00;;;5.40;;
59516;SDS011;45342;42.662;27.718;2024-01-16T11:28:10;7.07;;;4.85;;
59516;SDS011;45342;42.662;27.718;2024-01-16T11:30:39;8.07;;;5.13;;
59516;SDS011;45342;42.662;27.718;2024-01-16T11:36:01;7.28;;;4.88;;
59516;SDS011;45342;42.662;27.718;2024-01-16T11:44:53;6.50;;;4.80;;
59516;SDS011;45342;42.662;27.718;2024-01-16T11:47:20;6.40;;;4.65;;
59516;SDS011;45342;42.662;27.718;2024-01-16T11:49:47;6.45;;;4.57;;
59516;SDS011;45342;42.662;27.718;2024-01-16T11:52:13;6.30;;;4.63;;
59516;SDS011;45342;42.662;27.718;2024-01-16T12:02:29;6.60;;;4.80;;
59516;SDS011;45342;42.662;27.718;2024-01-16T12:04:59;6.93;;;4.43;;
59516;SDS011;45342;42.662;27.718;2024-01-16T12:07:41;5.97;;;4.55;;
59516;SDS011;45342;42.662;27.718;2024-01-16T12:10:10;8.10;;;5.63;;
59516;SDS011;45342;42.662;27.718;2024-01-16T12:12:36;11.07;;;6.72;;
59516;SDS011;45342;42.662;27.718;2024-01-16T12:15:02;13.27;;;7.47;;
59516;SDS011;45342;42.662;27.718;2024-01-16T12:17:29;10.27;;;6.47;;
59516;SDS011;45342;42.662;27.718;2024-01-16T12:19:55;9.23;;;5.63;;
59516;SDS011;45342;42.662;27.718;2024-01-16T12:24:47;8.57;;;5.13;;
59516;SDS011;45342;42.662;27.718;2024-01-16T12:27:13;8.27;;;5.25;;
59516;SDS011;45342;42.662;27.718;2024-01-16T12:29:40;8.60;;;5.38;;
59516;SDS011;45342;42.662;27.718;2024-01-16T12:32:08;7.05;;;5.13;;
59516;SDS011;45342;42.662;27.718;2024-01-16T12:34:35;7.82;;;5.25;;
59516;SDS011;45342;42.662;27.718;2024-01-16T12:37:06;7.75;;;5.32;;
59516;SDS011;45342;42.662;27.718;2024-01-16T12:39:33;7.28;;;5.07;;
59516;SDS011;45342;42.662;27.718;2024-01-16T12:42:00;7.88;;;5.32;;
59516;SDS011;45342;42.662;27.718;2024-01-16T12:44:27;7.57;;;4.93;;
59516;SDS011;45342;42.662;27.718;2024-01-16T12:46:57;7.03;;;4.80;;
59516;SDS011;45342;42.662;27.718;2024-01-16T12:49:24;7.05;;;4.78;;
59516;SDS011;45342;42.662;27.718;2024-01-16T12:54:46;7.15;;;4.80;;
59516;SDS011;45342;42.662;27.718;2024-01-16T12:57:21;6.80;;;4.93;;
59516;SDS011;45342;42.662;27.718;2024-01-16T12:59:47;6.78;;;4.60;;
59516;SDS011;45342;42.662;27.718;2024-01-16T13:02:23;7.00;;;4.75;;
59516;SDS011;45342;42.662;27.718;2024-01-16T13:04:59;7.10;;;5.10;;
59516;SDS011;45342;42.662;27.718;2024-01-16T13:07:27;7.20;;;4.60;;
59516;SDS011;45342;42.662;27.718;2024-01-16T13:10:11;7.03;;;4.43;;
59516;SDS011;45342;42.662;27.718;2024-01-16T13:12:41;7.47;;;4.85;;
59516;SDS011;45342;42.662;27.718;2024-01-16T13:15:07;7.50;;;5.20;;
59516;SDS011;45342;42.662;27.718;2024-01-16T13:17:33;7.68;;;4.68;;
59516;SDS011;45342;42.662;27.718;2024-01-16T13:20:00;6.05;;;4.60;;
59516;SDS011;45342;42.662;27.718;2024-01-16T13:22:26;7.18;;;4.63;;
59516;SDS011;45342;42.662;27.718;2024-01-16T13:24:52;6.90;;;4.65;;
59516;SDS011;45342;42.662;27.718;2024-01-16T13:27:18;6.20;;;4.53;;
59516;SDS011;45342;42.662;27.718;2024-01-16T13:29:44;6.85;;;4.70;;
59516;SDS011;45342;42.662;27.718;2024-01-16T13:32:10;7.15;;;4.65;;
59516;SDS011;45342;42.662;27.718;2024-01-16T13:34:36;5.72;;;4.30;;
59516;SDS011;45342;42.662;27.718;2024-01-16T13:37:02;6.88;;;4.90;;
59516;SDS011;45342;42.662;27.718;2024-01-16T13:39:29;6.43;;;4.45;;
59516;SDS011;45342;42.662;27.718;2024-01-16T13:41:59;7.38;;;4.53;;
59516;SDS011;45342;42.662;27.718;2024-01-16T13:44:25;6.38;;;4.47;;
59516;SDS011;45342;42.662;27.718;2024-01-16T13:46:53;7.38;;;4.97;;
59516;SDS011;45342;42.662;27.718;2024-01-16T13:49:18;6.45;;;4.40;;
59516;SDS011;45342;42.662;27.718;2024-01-16T13:51:46;7.35;;;4.75;;
59516;SDS011;45342;42.662;27.718;2024-01-16T13:54:11;6.63;;;4.35;;
59516;SDS011;45342;42.662;27.718;2024-01-16T13:56:37;6.38;;;4.35;;
59516;SDS011;45342;42.662;27.718;2024-01-16T13:59:04;6.00;;;4.30;;
59516;SDS011;45342;42.662;27.718;2024-01-16T14:01:30;6.20;;;4.55;;
59516;SDS011;45342;42.662;27.718;2024-01-16T14:03:55;6.05;;;4.28;;
59516;SDS011;45342;42.662;27.718;2024-01-16T14:06:21;7.10;;;4.72;;
59516;SDS011;45342;42.662;27.718;2024-01-16T14:08:47;5.95;;;4.43;;
59516;SDS011;45342;42.662;27.718;2024-01-16T14:11:12;6.28;;;4.70;;
59516;SDS011;45342;42.662;27.718;2024-01-16T14:13:40;6.68;;;4.60;;
59516;SDS011;45342;42.662;27.718;2024-01-16T14:16:08;6.40;;;4.28;;
59516;SDS011;45342;42.662;27.718;2024-01-16T14:18:34;6.80;;;4.72;;
59516;SDS011;45342;42.662;27.718;2024-01-16T14:21:00;6.18;;;4.38;;
59516;SDS011;45342;42.662;27.718;2024-01-16T14:23:25;5.25;;;4.05;;
59516;SDS011;45342;42.662;27.718;2024-01-16T14:25:51;5.40;;;4.20;;
59516;SDS011;45342;42.662;27.718;2024-01-16T14:28:17;6.10;;;4.50;;
59516;SDS011;45342;42.662;27.718;2024-01-16T14:30:42;5.80;;;4.53;;
59516;SDS011;45342;42.662;27.718;2024-01-16T14:33:10;5.85;;;4.50;;
59516;SDS011;45342;42.662;27.718;2024-01-16T14:35:37;6.18;;;4.40;;
59516;SDS011;45342;42.662;27.718;2024-01-16T14:38:03;5.97;;;3.90;;
59516;SDS011;45342;42.662;27.718;2024-01-16T14:40:29;6.13;;;4.65;;
59516;SDS011;45342;42.662;27.718;2024-01-16T14:42:55;6.05;;;4.20;;
59516;SDS011;45342;42.662;27.718;2024-01-16T14:45:27;6.82;;;4.55;;
59516;SDS011;45342;42.662;27.718;2024-01-16T14:47:53;6.30;;;4.10;;
59516;SDS011;45342;42.662;27.718;2024-01-16T14:50:19;7.45;;;4.57;;
59516;SDS011;45342;42.662;27.718;2024-01-16T14:52:47;5.88;;;4.10;;
59516;SDS011;45342;42.662;27.718;2024-01-16T14:55:13;6.25;;;4.40;;
59516;SDS011;45342;42.662;27.718;2024-01-16T14:57:39;5.97;;;4.45;;
59516;SDS011;45342;42.662;27.718;2024-01-16T15:00:10;6.45;;;4.60;;
59516;SDS011;45342;42.662;27.718;2024-01-16T15:02:57;5.97;;;4.43;;
59516;SDS011;45342;42.662;27.718;2024-01-16T15:05:22;6.82;;;4.90;;
59516;SDS011;45342;42.662;27.718;2024-01-16T15:07:50;6.22;;;4.80;;
59516;SDS011;45342;42.662;27.718;2024-01-16T15:10:20;5.00;;;4.13;;
59516;SDS011;45342;42.662;27.718;2024-01-16T15:12:46;6.05;;;4.55;;
59516;SDS011;45342;42.662;27.718;2024-01-16T15:17:40;5.53;;;4.38;;
59516;SDS011;45342;42.662;27.718;2024-01-16T15:20:07;6.50;;;4.72;;
59516;SDS011;45342;42.662;27.718;2024-01-16T15:22:40;6.22;;;4.50;;
59516;SDS011;45342;42.662;27.718;2024-01-16T15:25:10;6.50;;;4.53;;